John Quigg — WDB9828 — position and weather

sailwx.info

Track history (hours):
 
Tides and Currents Weather Stations Pressure Air Temp Water Temp Dewpoint Dewpoint Depression Visibility Wind Speed Wind Dir Waves Ship Positions

John Quigg

Owner: Harley Marine Services, Inc, Seattle, WA. More information available from US FCC via Universal Licensing System and Coast Guard Vessel Documentation Center.

Last reported at 2017-Sep-24 14:00 UTC. Time now 2017-Sep-24 14:09 UTC.
Position N 33°44' W 118°16'.

Length 27 m.

MMSI: 365934954.

Date/timePositionNaut miles runAvg speedWind from/ knotsBaromVisibWave heightAir tempDewpointWater temp
2017-Sep-24 14:00N 33°44' W 118°16'0 0.0
2017-Sep-24 13:30N 33°44' W 118°16'0 0.0
2017-Sep-24 13:00N 33°44' W 118°16'0 0.3
2017-Sep-24 12:31N 33°44' W 118°15'0 0.3
2017-Sep-24 12:00N 33°44' W 118°16'0 0.0
2017-Sep-24 11:29N 33°44' W 118°16'0 0.0
2017-Sep-24 10:56N 33°44' W 118°16'0 0.0
2017-Sep-24 10:12N 33°44' W 118°16'0 0.0
2017-Sep-24 09:59N 33°44' W 118°16'0 0.0
2017-Sep-24 09:25N 33°44' W 118°16'0 0.0
2017-Sep-24 08:57N 33°44' W 118°16'0 0.0
2017-Sep-24 08:30N 33°44' W 118°16'0 0.0
2017-Sep-24 08:00N 33°44' W 118°16'0 0.0
2017-Sep-24 07:29N 33°44' W 118°16'0 0.0
2017-Sep-24 06:58N 33°44' W 118°16'0 0.0
2017-Sep-24 06:19N 33°44' W 118°16'0 0.0
2017-Sep-24 05:59N 33°44' W 118°16'0 0.0
2017-Sep-24 05:30N 33°44' W 118°16'0 0.0
2017-Sep-24 05:00N 33°44' W 118°16'0 0.0
2017-Sep-24 04:30N 33°44' W 118°16'0 0.0
2017-Sep-24 04:00N 33°44' W 118°16'0 0.0
2017-Sep-24 03:30N 33°44' W 118°16'0 0.0
2017-Sep-24 03:00N 33°44' W 118°16'0 0.0
2017-Sep-24 02:30N 33°44' W 118°16'0 0.0
2017-Sep-24 01:59N 33°44' W 118°16'0 0.0
2017-Sep-24 01:27N 33°44' W 118°16'0 0.0
2017-Sep-24 00:58N 33°44' W 118°16'0 0.0
2017-Sep-24 00:29N 33°44' W 118°16'0 0.0
2017-Sep-24 00:00N 33°44' W 118°16'0 0.0
2017-Sep-23 23:30N 33°44' W 118°16'0 0.0
2017-Sep-23 23:00N 33°44' W 118°16'0 0.0
2017-Sep-23 22:28N 33°44' W 118°16'0 0.0
2017-Sep-23 21:58N 33°44' W 118°16'0 0.0
2017-Sep-23 21:26N 33°44' W 118°16'0 0.0
2017-Sep-23 21:00N 33°44' W 118°16'0 0.0
2017-Sep-23 20:27N 33°44' W 118°16'2 3.9
2017-Sep-23 19:59N 33°44' W 118°13'2 0.0
2017-Sep-22 02:00N 33°44' W 118°16'0 0.0
2017-Sep-22 01:28N 33°44' W 118°16'0 0.0
2017-Sep-22 01:00N 33°44' W 118°16'0 0.0
2017-Sep-22 00:30N 33°44' W 118°16'1 2.5
2017-Sep-21 23:59N 33°43' W 118°15'4 5.7
2017-Sep-21 23:16N 33°44' W 118°10'0 1.5
2017-Sep-21 23:00N 33°44' W 118°10'4 6.9
2017-Sep-21 22:28N 33°43' W 118°14'2 3.6
2017-Sep-21 22:00N 33°44' W 118°16'0 0.0
2017-Sep-21 21:30N 33°44' W 118°16'0 0.0
2017-Sep-21 21:00N 33°44' W 118°16'0 0.0
2017-Sep-21 20:29N 33°44' W 118°16'0 0.0
2017-Sep-21 20:00N 33°44' W 118°16'0 0.0
2017-Sep-21 19:30N 33°44' W 118°16'0 0.0
2017-Sep-21 19:00N 33°44' W 118°16'0 0.0
2017-Sep-21 18:30N 33°44' W 118°16'2 4.4
2017-Sep-21 18:00N 33°44' W 118°13'1 1.9
2017-Sep-21 17:29N 33°45' W 118°13'0 0.0
2017-Sep-21 17:00N 33°45' W 118°13'0 0.0
2017-Sep-21 16:30N 33°45' W 118°13'0 0.0
2017-Sep-21 16:00N 33°45' W 118°13'1 2.1
2017-Sep-21 15:30N 33°44' W 118°13'1 2.1
2017-Sep-21 14:58N 33°44' W 118°12'0 0.1
2017-Sep-21 14:28N 33°44' W 118°12'1 2.1
2017-Sep-21 13:59N 33°44' W 118°12'1 1.2
2017-Sep-21 13:30N 33°45' W 118°12'0 0.7
2017-Sep-21 13:00N 33°44' W 118°12'3 6.4
2017-Sep-21 12:30N 33°43' W 118°15'1 1.9
2017-Sep-21 11:59N 33°44' W 118°15'1 2.0
2017-Sep-21 11:30N 33°43' W 118°16'3 6.0
2017-Sep-21 11:00N 33°46' W 118°17'1 1.7
2017-Sep-21 10:26N 33°45' W 118°16'2 5.3
2017-Sep-21 10:00N 33°43' W 118°15'1 2.1
2017-Sep-21 09:26N 33°44' W 118°16'0 0.0
2017-Sep-21 08:59N 33°44' W 118°16'0 0.0
2017-Sep-21 08:29N 33°44' W 118°16'0 0.0
2017-Sep-21 08:00N 33°44' W 118°16'0 0.0
2017-Sep-21 07:30N 33°44' W 118°16'0 0.0
2017-Sep-21 06:58N 33°44' W 118°16'0 0.0
2017-Sep-21 06:30N 33°44' W 118°16'0 0.0
2017-Sep-21 05:59N 33°44' W 118°16'0 0.0
2017-Sep-21 05:30N 33°44' W 118°16'0 0.0
2017-Sep-21 04:59N 33°44' W 118°16'0 0.0
2017-Sep-21 04:30N 33°44' W 118°16'0 0.0
2017-Sep-21 04:00N 33°44' W 118°16'0 0.0
2017-Sep-21 03:30N 33°44' W 118°16'0 0.0
2017-Sep-21 03:00N 33°44' W 118°16'0 0.0
2017-Sep-21 02:30N 33°44' W 118°16'0 0.0
2017-Sep-21 02:00N 33°44' W 118°16'0 0.1
2017-Sep-21 01:30N 33°44' W 118°16'2 3.7
2017-Sep-21 01:00N 33°44' W 118°13'3 5.3
2017-Sep-21 00:29N 33°46' W 118°13'0 1.0
2017-Sep-21 00:01N 33°46' W 118°13'0 0.3
2017-Sep-20 23:30N 33°46' W 118°13'2 3.4
2017-Sep-20 23:00N 33°44' W 118°13'1 2.4
2017-Sep-20 22:28N 33°44' W 118°12'2 3.7
2017-Sep-20 21:53N 33°43' W 118°14'2 3.9
2017-Sep-20 21:30N 33°44' W 118°16'0 0.0
2017-Sep-20 16:57N 33°44' W 118°16'0 0.0
2017-Sep-20 16:30N 33°44' W 118°16'0 0.0
2017-Sep-20 16:00N 33°44' W 118°16'0 0.0
2017-Sep-20 15:30N 33°44' W 118°16'1 2.6
2017-Sep-20 14:57N 33°45' W 118°16'1 0.7
2017-Sep-20 14:00N 33°45' W 118°16'1 2.1
2017-Sep-20 13:30N 33°44' W 118°16'0 0.0
2017-Sep-20 13:00N 33°44' W 118°16'0 0.0
2017-Sep-20 12:30N 33°44' W 118°16'0 0.9
2017-Sep-20 12:00N 33°44' W 118°15'0 0.7
2017-Sep-20 11:27N 33°44' W 118°16'1 2.7
2017-Sep-20 10:59N 33°43' W 118°15'1 2.6
2017-Sep-20 10:28N 33°44' W 118°16'0 0.0
2017-Sep-20 09:59N 33°44' W 118°16'0 0.0
2017-Sep-20 09:30N 33°44' W 118°16'0 0.0
2017-Sep-20 09:00N 33°44' W 118°16'0 0.0
2017-Sep-20 08:27N 33°44' W 118°16'0 0.0
2017-Sep-20 07:59N 33°44' W 118°16'0 0.0
2017-Sep-20 07:29N 33°44' W 118°16'0 0.0
2017-Sep-20 06:57N 33°44' W 118°16'0 0.0
2017-Sep-20 06:30N 33°44' W 118°16'0 0.0
2017-Sep-20 05:59N 33°44' W 118°16'0 0.0
2017-Sep-20 05:28N 33°44' W 118°16'0 0.0
2017-Sep-20 04:59N 33°44' W 118°16'0 0.0
2017-Sep-20 04:29N 33°44' W 118°16'0 0.0
2017-Sep-20 04:00N 33°44' W 118°16'0 0.0
2017-Sep-20 03:30N 33°44' W 118°16'0 0.0
2017-Sep-20 02:59N 33°44' W 118°16'0 0.0
2017-Sep-20 02:30N 33°44' W 118°16'0 0.0
2017-Sep-20 01:59N 33°44' W 118°16'0 0.0
2017-Sep-20 01:28N 33°44' W 118°16'0 0.0
2017-Sep-20 00:59N 33°44' W 118°16'0 0.0
2017-Sep-20 00:28N 33°44' W 118°16'0 0.0
2017-Sep-20 00:00N 33°44' W 118°16'0 0.0
2017-Sep-19 23:29N 33°44' W 118°16'0 0.0
2017-Sep-19 23:00N 33°44' W 118°16'0 0.0
2017-Sep-19 22:30N 33°44' W 118°16'0 0.0
2017-Sep-19 22:00N 33°44' W 118°16'0 0.0
2017-Sep-19 21:30N 33°44' W 118°16'0 0.9
2017-Sep-19 20:59N 33°44' W 118°15'2 3.3
2017-Sep-19 20:29N 33°42' W 118°15'0 0.9
2017-Sep-19 19:59N 33°43' W 118°15'1 2.9
2017-Sep-19 19:30N 33°44' W 118°16'0 0.0
2017-Sep-19 18:58N 33°44' W 118°16'0 0.0
2017-Sep-19 18:29N 33°44' W 118°16'0 0.0
2017-Sep-19 17:59N 33°44' W 118°16'0 0.0
2017-Sep-19 17:28N 33°44' W 118°16'0 0.0
2017-Sep-19 17:00N 33°44' W 118°16'0 0.0
2017-Sep-19 16:29N 33°44' W 118°16'0 0.0
2017-Sep-19 16:00N 33°44' W 118°16'0 0.0
2017-Sep-19 15:22N 33°44' W 118°16'0 0.0
2017-Sep-19 15:00N 33°44' W 118°16'0 0.0
2017-Sep-19 14:30N 33°44' W 118°16'0 0.0
2017-Sep-19 13:56N 33°44' W 118°16'0 0.0
2017-Sep-19 13:23N 33°44' W 118°16'0 0.0
2017-Sep-19 13:00N 33°44' W 118°16'1 1.5
2017-Sep-19 12:29N 33°44' W 118°17'1 1.7
2017-Sep-19 11:59N 33°45' W 118°16'1 2.6
2017-Sep-19 11:28N 33°44' W 118°16'1 1.1
2017-Sep-19 10:57N 33°44' W 118°16'0 0.0
2017-Sep-19 10:28N 33°44' W 118°16'0 0.0
2017-Sep-19 10:00N 33°44' W 118°16'0 0.0
2017-Sep-19 09:30N 33°44' W 118°16'0 0.0
2017-Sep-19 08:58N 33°44' W 118°16'0 0.0
2017-Sep-19 08:30N 33°44' W 118°16'0 0.0
2017-Sep-19 07:59N 33°44' W 118°16'0 0.0
2017-Sep-19 07:25N 33°44' W 118°16'0 0.0
2017-Sep-19 06:57N 33°44' W 118°16'0 0.0
2017-Sep-19 06:29N 33°44' W 118°16'0 0.0
2017-Sep-19 05:58N 33°44' W 118°16'0 0.0
2017-Sep-19 05:30N 33°44' W 118°16'0 0.0
2017-Sep-19 05:00N 33°44' W 118°16'0 0.0
2017-Sep-19 04:29N 33°44' W 118°16'0 0.0
2017-Sep-19 03:59N 33°44' W 118°16'0 0.0
2017-Sep-19 03:28N 33°44' W 118°16'0 0.0
2017-Sep-19 03:00N 33°44' W 118°16'0 0.0
2017-Sep-19 02:30N 33°44' W 118°16'0 0.0
2017-Sep-19 01:58N 33°44' W 118°16'0 0.0
2017-Sep-19 01:30N 33°44' W 118°16'0 0.0
2017-Sep-19 01:00N 33°44' W 118°16'0 0.0
2017-Sep-19 00:25N 33°44' W 118°16'0 0.0
2017-Sep-19 00:00N 33°44' W 118°16'0 0.0
2017-Sep-18 23:30N 33°44' W 118°16'0 0.0
2017-Sep-18 23:00N 33°44' W 118°16'0 0.0
2017-Sep-18 22:30N 33°44' W 118°16'0 0.0
2017-Sep-18 22:00N 33°44' W 118°16'0 0.0
2017-Sep-18 21:30N 33°44' W 118°16'0 0.0
2017-Sep-18 21:00N 33°44' W 118°16'0 0.0
2017-Sep-18 20:30N 33°44' W 118°16'0 0.0
2017-Sep-18 20:00N 33°44' W 118°16'1 1.3
2017-Sep-18 19:30N 33°44' W 118°16'0 0.0
2017-Sep-18 18:59N 33°44' W 118°16'0 0.0
2017-Sep-18 18:26N 33°44' W 118°16'1 1.5
2017-Sep-18 18:00N 33°44' W 118°16'0 0.0
2017-Sep-18 17:30N 33°44' W 118°16'0 0.0
2017-Sep-18 17:00N 33°44' W 118°16'0 0.0
2017-Sep-18 16:26N 33°44' W 118°16'0 0.0
2017-Sep-18 15:56N 33°44' W 118°16'0 0.0
2017-Sep-18 15:30N 33°44' W 118°16'0 0.0
2017-Sep-18 14:56N 33°44' W 118°16'0 0.0
2017-Sep-18 14:29N 33°44' W 118°16'0 0.0
2017-Sep-18 13:53N 33°44' W 118°16'0 0.0
2017-Sep-18 13:30N 33°44' W 118°16'0 0.0
2017-Sep-18 12:58N 33°44' W 118°16'0 0.2
2017-Sep-18 12:29N 33°44' W 118°16'0 0.3
2017-Sep-18 12:00N 33°44' W 118°15'0 0.3
2017-Sep-18 11:28N 33°44' W 118°16'0 0.0
2017-Sep-18 10:57N 33°44' W 118°16'0 0.0
2017-Sep-18 10:28N 33°44' W 118°16'0 0.0
2017-Sep-18 10:00N 33°44' W 118°16'0 0.0
2017-Sep-18 09:29N 33°44' W 118°16'0 0.0
2017-Sep-18 08:58N 33°44' W 118°16'0 0.0
2017-Sep-18 08:28N 33°44' W 118°16'0 0.0
2017-Sep-18 08:00N 33°44' W 118°16'0 0.0
2017-Sep-18 07:23N 33°44' W 118°16'0 0.0
2017-Sep-18 07:00N 33°44' W 118°16'0 0.0
2017-Sep-18 06:29N 33°44' W 118°16'0 0.0
2017-Sep-18 05:59N 33°44' W 118°16'0 0.0
2017-Sep-18 05:28N 33°44' W 118°16'0 0.0
2017-Sep-18 04:53N 33°44' W 118°16'0 0.0
2017-Sep-18 04:26N 33°44' W 118°16'0 0.0
2017-Sep-18 03:59N 33°44' W 118°16'0 0.0
2017-Sep-18 03:25N 33°44' W 118°16'0 0.0
2017-Sep-18 02:59N 33°44' W 118°16'0 0.0
2017-Sep-18 02:30N 33°44' W 118°16'0 0.0
2017-Sep-18 01:57N 33°44' W 118°16'0 0.0
2017-Sep-18 01:30N 33°44' W 118°16'0 0.0
2017-Sep-18 00:58N 33°44' W 118°16'0 0.0
2017-Sep-18 00:30N 33°44' W 118°16'0 0.0
2017-Sep-17 23:54N 33°44' W 118°16'0 0.0
2017-Sep-17 23:27N 33°44' W 118°16'0 0.0
2017-Sep-17 22:58N 33°44' W 118°16'0 0.0
2017-Sep-17 22:30N 33°44' W 118°16'0 0.0
2017-Sep-17 22:00N 33°44' W 118°16'0 0.0
2017-Sep-17 21:29N 33°44' W 118°16'0 0.0
2017-Sep-17 21:00N 33°44' W 118°16'0 0.0
2017-Sep-17 20:30N 33°44' W 118°16'0 0.0
2017-Sep-17 19:59N 33°44' W 118°16'0 0.0
2017-Sep-17 19:28N 33°44' W 118°16'0 0.0
2017-Sep-17 19:00N 33°44' W 118°16'0 0.0
2017-Sep-17 18:27N 33°44' W 118°16'0 0.0
2017-Sep-17 17:57N 33°44' W 118°16'0 0.0
2017-Sep-17 17:22N 33°44' W 118°16'0 0.0
2017-Sep-17 16:45N 33°44' W 118°16'0 0.0
2017-Sep-17 16:27N 33°44' W 118°16'0 0.0
2017-Sep-17 16:00N 33°44' W 118°16'0 0.0
2017-Sep-17 15:19N 33°44' W 118°16'0 0.0
2017-Sep-17 14:57N 33°44' W 118°16'0 0.0
2017-Sep-17 14:21N 33°44' W 118°16'0 0.0
2017-Sep-17 14:00N 33°44' W 118°16'0 0.0
2017-Sep-17 13:21N 33°44' W 118°16'0 0.0
2017-Sep-17 12:59N 33°44' W 118°16'0 0.0
2017-Sep-17 12:30N 33°44' W 118°16'0 0.0
2017-Sep-17 12:00N 33°44' W 118°16'0 0.0
2017-Sep-17 11:24N 33°44' W 118°16'0 0.0
2017-Sep-17 10:22N 33°44' W 118°16'0 0.0
2017-Sep-17 09:56N 33°44' W 118°16'0 0.0
2017-Sep-17 09:19N 33°44' W 118°16'0 0.0
2017-Sep-17 08:57N 33°44' W 118°16'0 0.0
2017-Sep-17 08:28N 33°44' W 118°16'0 0.0
2017-Sep-17 07:53N 33°44' W 118°16'0 0.0
2017-Sep-17 07:22N 33°44' W 118°16'0 0.0
2017-Sep-17 06:54N 33°44' W 118°16'0 0.0
2017-Sep-17 06:27N 33°44' W 118°16'0 0.0
2017-Sep-17 05:59N 33°44' W 118°16'0 0.0
2017-Sep-17 05:29N 33°44' W 118°16'0 0.0
2017-Sep-17 04:59N 33°44' W 118°16'0 0.0
2017-Sep-17 04:30N 33°44' W 118°16'0 0.0
2017-Sep-17 04:00N 33°44' W 118°16'0 0.0
2017-Sep-17 03:30N 33°44' W 118°16'0 0.0
2017-Sep-17 03:00N 33°44' W 118°16'0 0.4
2017-Sep-17 02:30N 33°44' W 118°16'2 3.5
2017-Sep-17 01:59N 33°45' W 118°17'1 1.0
2017-Sep-17 01:28N 33°46' W 118°17'0 0.0
2017-Sep-17 00:59N 33°46' W 118°17'3 5.7
2017-Sep-17 00:30N 33°43' W 118°16'3 5.3
2017-Sep-16 23:59N 33°45' W 118°13'1 1.3
2017-Sep-16 23:30N 33°44' W 118°13'2 4.5
2017-Sep-16 23:00N 33°44' W 118°16'0 0.0
2017-Sep-16 22:30N 33°44' W 118°16'0 0.0
2017-Sep-16 21:59N 33°44' W 118°16'0 0.0
2017-Sep-16 21:30N 33°44' W 118°16'0 0.0
2017-Sep-16 20:59N 33°44' W 118°16'0 0.0
2017-Sep-16 20:29N 33°44' W 118°16'0 0.0
2017-Sep-16 20:00N 33°44' W 118°16'0 0.0
2017-Sep-16 19:29N 33°44' W 118°16'0 0.0
2017-Sep-16 19:00N 33°44' W 118°16'0 0.0
2017-Sep-16 18:30N 33°44' W 118°16'0 0.0
2017-Sep-16 17:59N 33°44' W 118°16'0 0.0
2017-Sep-16 17:28N 33°44' W 118°16'0 0.0
2017-Sep-16 16:59N 33°44' W 118°16'0 0.0
2017-Sep-16 16:28N 33°44' W 118°16'2 3.1
2017-Sep-16 15:57N 33°43' W 118°14'3 4.6
2017-Sep-16 15:16N 33°45' W 118°11'0 1.4
2017-Sep-16 14:58N 33°45' W 118°11'1 2.2
2017-Sep-16 14:17N 33°44' W 118°12'2 3.5
2017-Sep-16 13:51N 33°43' W 118°14'2 4.9
2017-Sep-16 13:30N 33°44' W 118°16'0 0.1
2017-Sep-16 12:27N 33°44' W 118°16'0 0.0
2017-Sep-16 12:00N 33°44' W 118°16'0 0.0
2017-Sep-16 11:19N 33°44' W 118°16'0 0.0
2017-Sep-16 10:47N 33°44' W 118°16'0 0.0
2017-Sep-16 10:28N 33°44' W 118°16'0 0.0
2017-Sep-16 09:54N 33°44' W 118°16'0 0.0
2017-Sep-16 09:30N 33°44' W 118°16'0 0.0
2017-Sep-16 08:52N 33°44' W 118°16'0 0.0
2017-Sep-16 08:28N 33°44' W 118°16'0 0.0
2017-Sep-16 07:56N 33°44' W 118°16'0 0.0
2017-Sep-16 07:30N 33°44' W 118°16'0 0.0
2017-Sep-16 07:00N 33°44' W 118°16'0 0.0
2017-Sep-16 06:28N 33°44' W 118°16'0 0.0
2017-Sep-16 06:00N 33°44' W 118°16'0 0.0
2017-Sep-16 05:30N 33°44' W 118°16'0 0.0
2017-Sep-16 05:00N 33°44' W 118°16'0 0.0
2017-Sep-16 04:30N 33°44' W 118°16'0 0.0
2017-Sep-16 04:00N 33°44' W 118°16'0 0.0
2017-Sep-16 03:29N 33°44' W 118°16'0 0.0
2017-Sep-16 03:00N 33°44' W 118°16'0 0.0
2017-Sep-16 02:30N 33°44' W 118°16'0 0.6
2017-Sep-16 01:58N 33°44' W 118°16'1 2.5
2017-Sep-16 01:30N 33°45' W 118°16'0 0.1
2017-Sep-16 01:00N 33°45' W 118°17'1 1.8
2017-Sep-16 00:28N 33°44' W 118°16'2 4.3
2017-Sep-15 23:58N 33°43' W 118°13'3 6.0
2017-Sep-15 23:30N 33°44' W 118°10'0 0.0
2017-Sep-15 22:59N 33°44' W 118°10'2 3.5
2017-Sep-15 22:30N 33°44' W 118°08'2 4.0
2017-Sep-15 21:59N 33°44' W 118°06'1 1.6
2017-Sep-15 21:30N 33°44' W 118°06'4 8.2
2017-Sep-15 21:00N 33°44' W 118°11'4 7.7
2017-Sep-15 20:30N 33°44' W 118°16'0 0.0
2017-Sep-15 20:00N 33°44' W 118°16'0 0.0
2017-Sep-15 19:29N 33°44' W 118°16'2 3.8
2017-Sep-15 18:56N 33°43' W 118°13'3 5.6
2017-Sep-15 18:26N 33°44' W 118°10'2 4.7
2017-Sep-15 18:00N 33°44' W 118°12'1 2.6
2017-Sep-15 17:30N 33°45' W 118°14'1 1.0
2017-Sep-15 17:00N 33°45' W 118°13'1 2.6
2017-Sep-15 16:30N 33°46' W 118°13'1 1.1
2017-Sep-15 16:00N 33°46' W 118°13'0 0.2
2017-Sep-15 15:29N 33°47' W 118°13'0 0.7
2017-Sep-15 14:58N 33°46' W 118°13'0 0.0
2017-Sep-15 14:29N 33°46' W 118°13'3 5.3
2017-Sep-15 14:00N 33°44' W 118°13'2 3.4
2017-Sep-15 13:30N 33°44' W 118°15'0 0.1
2017-Sep-15 13:00N 33°44' W 118°15'1 2.7
2017-Sep-15 12:30N 33°45' W 118°16'2 3.0
2017-Sep-15 11:58N 33°44' W 118°16'1 1.2
2017-Sep-15 11:30N 33°44' W 118°16'0 0.0
2017-Sep-15 10:57N 33°44' W 118°16'0 0.0
2017-Sep-15 10:30N 33°44' W 118°16'0 0.0
2017-Sep-15 09:59N 33°44' W 118°16'0 0.0
2017-Sep-15 09:30N 33°44' W 118°16'0 0.0
2017-Sep-15 08:59N 33°44' W 118°16'0 0.0
2017-Sep-15 08:31N 33°44' W 118°16'0 0.0
2017-Sep-15 07:58N 33°44' W 118°16'0 0.0
2017-Sep-15 07:30N 33°44' W 118°16'0 0.0
2017-Sep-15 06:59N 33°44' W 118°16'0 0.0
2017-Sep-15 06:29N 33°44' W 118°16'0 0.0
2017-Sep-15 05:57N 33°44' W 118°16'0 0.0
2017-Sep-15 05:28N 33°44' W 118°16'0 0.0
2017-Sep-15 05:00N 33°44' W 118°16'0 0.0
2017-Sep-15 04:28N 33°44' W 118°16'0 0.0
2017-Sep-15 04:00N 33°44' W 118°16'0 0.0
2017-Sep-15 03:30N 33°44' W 118°16'0 0.0
2017-Sep-15 03:00N 33°44' W 118°16'0 0.0
2017-Sep-15 02:28N 33°44' W 118°16'0 0.0
2017-Sep-15 02:00N 33°44' W 118°16'0 0.0
2017-Sep-15 01:29N 33°44' W 118°16'0 0.0
2017-Sep-15 01:00N 33°44' W 118°16'0 0.0
2017-Sep-15 00:30N 33°44' W 118°16'0 0.0
2017-Sep-15 00:00N 33°44' W 118°16'0 0.0
2017-Sep-14 23:29N 33°44' W 118°16'0 0.0
2017-Sep-14 22:58N 33°44' W 118°16'0 0.0
2017-Sep-14 22:30N 33°44' W 118°16'0 0.0
2017-Sep-14 22:00N 33°44' W 118°16'0 0.0
2017-Sep-14 21:30N 33°44' W 118°16'0 0.0
2017-Sep-14 21:00N 33°44' W 118°16'0 0.0
2017-Sep-14 20:30N 33°44' W 118°16'0 0.0
2017-Sep-14 20:00N 33°44' W 118°16'0 0.1
2017-Sep-14 19:30N 33°44' W 118°16'0 0.2
2017-Sep-14 19:00N 33°44' W 118°16'0 0.0
2017-Sep-14 18:30N 33°44' W 118°16'0 0.0
2017-Sep-14 18:00N 33°44' W 118°16'0 0.0
2017-Sep-14 17:30N 33°44' W 118°16'1 1.8
2017-Sep-14 17:00N 33°43' W 118°16'3 7.0
2017-Sep-14 16:30N 33°44' W 118°12'1 2.2
2017-Sep-14 16:00N 33°45' W 118°13'1 1.1
2017-Sep-14 15:30N 33°46' W 118°13'0 0.2
2017-Sep-14 15:00N 33°45' W 118°13'1 2.8
2017-Sep-14 14:29N 33°44' W 118°13'  
Track history (hours):
 
Tides and Currents Weather Stations Pressure Air Temp Water Temp Dewpoint Dewpoint Depression Visibility Wind Speed Wind Dir Waves Ship Positions

John Quigg

Owner: Harley Marine Services, Inc, Seattle, WA. More information available from US FCC via Universal Licensing System and Coast Guard Vessel Documentation Center.

Last reported at 2017-Sep-24 14:00 UTC. Time now 2017-Sep-24 14:09 UTC.
Position N 33°44' W 118°16'.

Length 27 m.

MMSI: 365934954.

Date/timePositionNaut miles runAvg speedWind from/ knotsBaromVisibWave heightAir tempDewpointWater temp
2017-Sep-24 14:00N 33°44' W 118°16'0 0.0
2017-Sep-24 13:30N 33°44' W 118°16'0 0.0
2017-Sep-24 13:00N 33°44' W 118°16'0 0.3
2017-Sep-24 12:31N 33°44' W 118°15'0 0.3
2017-Sep-24 12:00N 33°44' W 118°16'0 0.0
2017-Sep-24 11:29N 33°44' W 118°16'0 0.0
2017-Sep-24 10:56N 33°44' W 118°16'0 0.0
2017-Sep-24 10:12N 33°44' W 118°16'0 0.0
2017-Sep-24 09:59N 33°44' W 118°16'0 0.0
2017-Sep-24 09:25N 33°44' W 118°16'0 0.0
2017-Sep-24 08:57N 33°44' W 118°16'0 0.0
2017-Sep-24 08:30N 33°44' W 118°16'0 0.0
2017-Sep-24 08:00N 33°44' W 118°16'0 0.0
2017-Sep-24 07:29N 33°44' W 118°16'0 0.0
2017-Sep-24 06:58N 33°44' W 118°16'0 0.0
2017-Sep-24 06:19N 33°44' W 118°16'0 0.0
2017-Sep-24 05:59N 33°44' W 118°16'0 0.0
2017-Sep-24 05:30N 33°44' W 118°16'0 0.0
2017-Sep-24 05:00N 33°44' W 118°16'0 0.0
2017-Sep-24 04:30N 33°44' W 118°16'0 0.0
2017-Sep-24 04:00N 33°44' W 118°16'0 0.0
2017-Sep-24 03:30N 33°44' W 118°16'0 0.0
2017-Sep-24 03:00N 33°44' W 118°16'0 0.0
2017-Sep-24 02:30N 33°44' W 118°16'0 0.0
2017-Sep-24 01:59N 33°44' W 118°16'0 0.0
2017-Sep-24 01:27N 33°44' W 118°16'0 0.0
2017-Sep-24 00:58N 33°44' W 118°16'0 0.0
2017-Sep-24 00:29N 33°44' W 118°16'0 0.0
2017-Sep-24 00:00N 33°44' W 118°16'0 0.0
2017-Sep-23 23:30N 33°44' W 118°16'0 0.0
2017-Sep-23 23:00N 33°44' W 118°16'0 0.0
2017-Sep-23 22:28N 33°44' W 118°16'0 0.0
2017-Sep-23 21:58N 33°44' W 118°16'0 0.0
2017-Sep-23 21:26N 33°44' W 118°16'0 0.0
2017-Sep-23 21:00N 33°44' W 118°16'0 0.0
2017-Sep-23 20:27N 33°44' W 118°16'2 3.9
2017-Sep-23 19:59N 33°44' W 118°13'2 0.0
2017-Sep-22 02:00N 33°44' W 118°16'0 0.0
2017-Sep-22 01:28N 33°44' W 118°16'0 0.0
2017-Sep-22 01:00N 33°44' W 118°16'0 0.0
2017-Sep-22 00:30N 33°44' W 118°16'1 2.5
2017-Sep-21 23:59N 33°43' W 118°15'4 5.7
2017-Sep-21 23:16N 33°44' W 118°10'0 1.5
2017-Sep-21 23:00N 33°44' W 118°10'4 6.9
2017-Sep-21 22:28N 33°43' W 118°14'2 3.6
2017-Sep-21 22:00N 33°44' W 118°16'0 0.0
2017-Sep-21 21:30N 33°44' W 118°16'0 0.0
2017-Sep-21 21:00N 33°44' W 118°16'0 0.0
2017-Sep-21 20:29N 33°44' W 118°16'0 0.0
2017-Sep-21 20:00N 33°44' W 118°16'0 0.0
2017-Sep-21 19:30N 33°44' W 118°16'0 0.0
2017-Sep-21 19:00N 33°44' W 118°16'0 0.0
2017-Sep-21 18:30N 33°44' W 118°16'2 4.4
2017-Sep-21 18:00N 33°44' W 118°13'1 1.9
2017-Sep-21 17:29N 33°45' W 118°13'0 0.0
2017-Sep-21 17:00N 33°45' W 118°13'0 0.0
2017-Sep-21 16:30N 33°45' W 118°13'0 0.0
2017-Sep-21 16:00N 33°45' W 118°13'1 2.1
2017-Sep-21 15:30N 33°44' W 118°13'1 2.1
2017-Sep-21 14:58N 33°44' W 118°12'0 0.1
2017-Sep-21 14:28N 33°44' W 118°12'1 2.1
2017-Sep-21 13:59N 33°44' W 118°12'1 1.2
2017-Sep-21 13:30N 33°45' W 118°12'0 0.7
2017-Sep-21 13:00N 33°44' W 118°12'3 6.4
2017-Sep-21 12:30N 33°43' W 118°15'1 1.9
2017-Sep-21 11:59N 33°44' W 118°15'1 2.0
2017-Sep-21 11:30N 33°43' W 118°16'3 6.0
2017-Sep-21 11:00N 33°46' W 118°17'1 1.7
2017-Sep-21 10:26N 33°45' W 118°16'2 5.3
2017-Sep-21 10:00N 33°43' W 118°15'1 2.1
2017-Sep-21 09:26N 33°44' W 118°16'0 0.0
2017-Sep-21 08:59N 33°44' W 118°16'0 0.0
2017-Sep-21 08:29N 33°44' W 118°16'0 0.0
2017-Sep-21 08:00N 33°44' W 118°16'0 0.0
2017-Sep-21 07:30N 33°44' W 118°16'0 0.0
2017-Sep-21 06:58N 33°44' W 118°16'0 0.0
2017-Sep-21 06:30N 33°44' W 118°16'0 0.0
2017-Sep-21 05:59N 33°44' W 118°16'0 0.0
2017-Sep-21 05:30N 33°44' W 118°16'0 0.0
2017-Sep-21 04:59N 33°44' W 118°16'0 0.0
2017-Sep-21 04:30N 33°44' W 118°16'0 0.0
2017-Sep-21 04:00N 33°44' W 118°16'0 0.0
2017-Sep-21 03:30N 33°44' W 118°16'0 0.0
2017-Sep-21 03:00N 33°44' W 118°16'0 0.0
2017-Sep-21 02:30N 33°44' W 118°16'0 0.0
2017-Sep-21 02:00N 33°44' W 118°16'0 0.1
2017-Sep-21 01:30N 33°44' W 118°16'2 3.7
2017-Sep-21 01:00N 33°44' W 118°13'3 5.3
2017-Sep-21 00:29N 33°46' W 118°13'0 1.0
2017-Sep-21 00:01N 33°46' W 118°13'0 0.3
2017-Sep-20 23:30N 33°46' W 118°13'2 3.4
2017-Sep-20 23:00N 33°44' W 118°13'1 2.4
2017-Sep-20 22:28N 33°44' W 118°12'2 3.7
2017-Sep-20 21:53N 33°43' W 118°14'2 3.9
2017-Sep-20 21:30N 33°44' W 118°16'0 0.0
2017-Sep-20 16:57N 33°44' W 118°16'0 0.0
2017-Sep-20 16:30N 33°44' W 118°16'0 0.0
2017-Sep-20 16:00N 33°44' W 118°16'0 0.0
2017-Sep-20 15:30N 33°44' W 118°16'1 2.6
2017-Sep-20 14:57N 33°45' W 118°16'1 0.7
2017-Sep-20 14:00N 33°45' W 118°16'1 2.1
2017-Sep-20 13:30N 33°44' W 118°16'0 0.0
2017-Sep-20 13:00N 33°44' W 118°16'0 0.0
2017-Sep-20 12:30N 33°44' W 118°16'0 0.9
2017-Sep-20 12:00N 33°44' W 118°15'0 0.7
2017-Sep-20 11:27N 33°44' W 118°16'1 2.7
2017-Sep-20 10:59N 33°43' W 118°15'1 2.6
2017-Sep-20 10:28N 33°44' W 118°16'0 0.0
2017-Sep-20 09:59N 33°44' W 118°16'0 0.0
2017-Sep-20 09:30N 33°44' W 118°16'0 0.0
2017-Sep-20 09:00N 33°44' W 118°16'0 0.0
2017-Sep-20 08:27N 33°44' W 118°16'0 0.0
2017-Sep-20 07:59N 33°44' W 118°16'0 0.0
2017-Sep-20 07:29N 33°44' W 118°16'0 0.0
2017-Sep-20 06:57N 33°44' W 118°16'0 0.0
2017-Sep-20 06:30N 33°44' W 118°16'0 0.0
2017-Sep-20 05:59N 33°44' W 118°16'0 0.0
2017-Sep-20 05:28N 33°44' W 118°16'0 0.0
2017-Sep-20 04:59N 33°44' W 118°16'0 0.0
2017-Sep-20 04:29N 33°44' W 118°16'0 0.0
2017-Sep-20 04:00N 33°44' W 118°16'0 0.0
2017-Sep-20 03:30N 33°44' W 118°16'0 0.0
2017-Sep-20 02:59N 33°44' W 118°16'0 0.0
2017-Sep-20 02:30N 33°44' W 118°16'0 0.0
2017-Sep-20 01:59N 33°44' W 118°16'0 0.0
2017-Sep-20 01:28N 33°44' W 118°16'0 0.0
2017-Sep-20 00:59N 33°44' W 118°16'0 0.0
2017-Sep-20 00:28N 33°44' W 118°16'0 0.0
2017-Sep-20 00:00N 33°44' W 118°16'0 0.0
2017-Sep-19 23:29N 33°44' W 118°16'0 0.0
2017-Sep-19 23:00N 33°44' W 118°16'0 0.0
2017-Sep-19 22:30N 33°44' W 118°16'0 0.0
2017-Sep-19 22:00N 33°44' W 118°16'0 0.0
2017-Sep-19 21:30N 33°44' W 118°16'0 0.9
2017-Sep-19 20:59N 33°44' W 118°15'2 3.3
2017-Sep-19 20:29N 33°42' W 118°15'0 0.9
2017-Sep-19 19:59N 33°43' W 118°15'1 2.9
2017-Sep-19 19:30N 33°44' W 118°16'0 0.0
2017-Sep-19 18:58N 33°44' W 118°16'0 0.0
2017-Sep-19 18:29N 33°44' W 118°16'0 0.0
2017-Sep-19 17:59N 33°44' W 118°16'0 0.0
2017-Sep-19 17:28N 33°44' W 118°16'0 0.0
2017-Sep-19 17:00N 33°44' W 118°16'0 0.0
2017-Sep-19 16:29N 33°44' W 118°16'0 0.0
2017-Sep-19 16:00N 33°44' W 118°16'0 0.0
2017-Sep-19 15:22N 33°44' W 118°16'0 0.0
2017-Sep-19 15:00N 33°44' W 118°16'0 0.0
2017-Sep-19 14:30N 33°44' W 118°16'0 0.0
2017-Sep-19 13:56N 33°44' W 118°16'0 0.0
2017-Sep-19 13:23N 33°44' W 118°16'0 0.0
2017-Sep-19 13:00N 33°44' W 118°16'1 1.5
2017-Sep-19 12:29N 33°44' W 118°17'1 1.7
2017-Sep-19 11:59N 33°45' W 118°16'1 2.6
2017-Sep-19 11:28N 33°44' W 118°16'1 1.1
2017-Sep-19 10:57N 33°44' W 118°16'0 0.0
2017-Sep-19 10:28N 33°44' W 118°16'0 0.0
2017-Sep-19 10:00N 33°44' W 118°16'0 0.0
2017-Sep-19 09:30N 33°44' W 118°16'0 0.0
2017-Sep-19 08:58N 33°44' W 118°16'0 0.0
2017-Sep-19 08:30N 33°44' W 118°16'0 0.0
2017-Sep-19 07:59N 33°44' W 118°16'0 0.0
2017-Sep-19 07:25N 33°44' W 118°16'0 0.0
2017-Sep-19 06:57N 33°44' W 118°16'0 0.0
2017-Sep-19 06:29N 33°44' W 118°16'0 0.0
2017-Sep-19 05:58N 33°44' W 118°16'0 0.0
2017-Sep-19 05:30N 33°44' W 118°16'0 0.0
2017-Sep-19 05:00N 33°44' W 118°16'0 0.0
2017-Sep-19 04:29N 33°44' W 118°16'0 0.0
2017-Sep-19 03:59N 33°44' W 118°16'0 0.0
2017-Sep-19 03:28N 33°44' W 118°16'0 0.0
2017-Sep-19 03:00N 33°44' W 118°16'0 0.0
2017-Sep-19 02:30N 33°44' W 118°16'0 0.0
2017-Sep-19 01:58N 33°44' W 118°16'0 0.0
2017-Sep-19 01:30N 33°44' W 118°16'0 0.0
2017-Sep-19 01:00N 33°44' W 118°16'0 0.0
2017-Sep-19 00:25N 33°44' W 118°16'0 0.0
2017-Sep-19 00:00N 33°44' W 118°16'0 0.0
2017-Sep-18 23:30N 33°44' W 118°16'0 0.0
2017-Sep-18 23:00N 33°44' W 118°16'0 0.0
2017-Sep-18 22:30N 33°44' W 118°16'0 0.0
2017-Sep-18 22:00N 33°44' W 118°16'0 0.0
2017-Sep-18 21:30N 33°44' W 118°16'0 0.0
2017-Sep-18 21:00N 33°44' W 118°16'0 0.0
2017-Sep-18 20:30N 33°44' W 118°16'0 0.0
2017-Sep-18 20:00N 33°44' W 118°16'1 1.3
2017-Sep-18 19:30N 33°44' W 118°16'0 0.0
2017-Sep-18 18:59N 33°44' W 118°16'0 0.0
2017-Sep-18 18:26N 33°44' W 118°16'1 1.5
2017-Sep-18 18:00N 33°44' W 118°16'0 0.0
2017-Sep-18 17:30N 33°44' W 118°16'0 0.0
2017-Sep-18 17:00N 33°44' W 118°16'0 0.0
2017-Sep-18 16:26N 33°44' W 118°16'0 0.0
2017-Sep-18 15:56N 33°44' W 118°16'0 0.0
2017-Sep-18 15:30N 33°44' W 118°16'0 0.0
2017-Sep-18 14:56N 33°44' W 118°16'0 0.0
2017-Sep-18 14:29N 33°44' W 118°16'0 0.0
2017-Sep-18 13:53N 33°44' W 118°16'0 0.0
2017-Sep-18 13:30N 33°44' W 118°16'0 0.0
2017-Sep-18 12:58N 33°44' W 118°16'0 0.2
2017-Sep-18 12:29N 33°44' W 118°16'0 0.3
2017-Sep-18 12:00N 33°44' W 118°15'0 0.3
2017-Sep-18 11:28N 33°44' W 118°16'0 0.0
2017-Sep-18 10:57N 33°44' W 118°16'0 0.0
2017-Sep-18 10:28N 33°44' W 118°16'0 0.0
2017-Sep-18 10:00N 33°44' W 118°16'0 0.0
2017-Sep-18 09:29N 33°44' W 118°16'0 0.0
2017-Sep-18 08:58N 33°44' W 118°16'0 0.0
2017-Sep-18 08:28N 33°44' W 118°16'0 0.0
2017-Sep-18 08:00N 33°44' W 118°16'0 0.0
2017-Sep-18 07:23N 33°44' W 118°16'0 0.0
2017-Sep-18 07:00N 33°44' W 118°16'0 0.0
2017-Sep-18 06:29N 33°44' W 118°16'0 0.0
2017-Sep-18 05:59N 33°44' W 118°16'0 0.0
2017-Sep-18 05:28N 33°44' W 118°16'0 0.0
2017-Sep-18 04:53N 33°44' W 118°16'0 0.0
2017-Sep-18 04:26N 33°44' W 118°16'0 0.0
2017-Sep-18 03:59N 33°44' W 118°16'0 0.0
2017-Sep-18 03:25N 33°44' W 118°16'0 0.0
2017-Sep-18 02:59N 33°44' W 118°16'0 0.0
2017-Sep-18 02:30N 33°44' W 118°16'0 0.0
2017-Sep-18 01:57N 33°44' W 118°16'0 0.0
2017-Sep-18 01:30N 33°44' W 118°16'0 0.0
2017-Sep-18 00:58N 33°44' W 118°16'0 0.0
2017-Sep-18 00:30N 33°44' W 118°16'0 0.0
2017-Sep-17 23:54N 33°44' W 118°16'0 0.0
2017-Sep-17 23:27N 33°44' W 118°16'0 0.0
2017-Sep-17 22:58N 33°44' W 118°16'0 0.0
2017-Sep-17 22:30N 33°44' W 118°16'0 0.0
2017-Sep-17 22:00N 33°44' W 118°16'0 0.0
2017-Sep-17 21:29N 33°44' W 118°16'0 0.0
2017-Sep-17 21:00N 33°44' W 118°16'0 0.0
2017-Sep-17 20:30N 33°44' W 118°16'0 0.0
2017-Sep-17 19:59N 33°44' W 118°16'0 0.0
2017-Sep-17 19:28N 33°44' W 118°16'0 0.0
2017-Sep-17 19:00N 33°44' W 118°16'0 0.0
2017-Sep-17 18:27N 33°44' W 118°16'0 0.0
2017-Sep-17 17:57N 33°44' W 118°16'0 0.0
2017-Sep-17 17:22N 33°44' W 118°16'0 0.0
2017-Sep-17 16:45N 33°44' W 118°16'0 0.0
2017-Sep-17 16:27N 33°44' W 118°16'0 0.0
2017-Sep-17 16:00N 33°44' W 118°16'0 0.0
2017-Sep-17 15:19N 33°44' W 118°16'0 0.0
2017-Sep-17 14:57N 33°44' W 118°16'0 0.0
2017-Sep-17 14:21N 33°44' W 118°16'0 0.0
2017-Sep-17 14:00N 33°44' W 118°16'0 0.0
2017-Sep-17 13:21N 33°44' W 118°16'0 0.0
2017-Sep-17 12:59N 33°44' W 118°16'0 0.0
2017-Sep-17 12:30N 33°44' W 118°16'0 0.0
2017-Sep-17 12:00N 33°44' W 118°16'0 0.0
2017-Sep-17 11:24N 33°44' W 118°16'0 0.0
2017-Sep-17 10:22N 33°44' W 118°16'0 0.0
2017-Sep-17 09:56N 33°44' W 118°16'0 0.0
2017-Sep-17 09:19N 33°44' W 118°16'0 0.0
2017-Sep-17 08:57N 33°44' W 118°16'0 0.0
2017-Sep-17 08:28N 33°44' W 118°16'0 0.0
2017-Sep-17 07:53N 33°44' W 118°16'0 0.0
2017-Sep-17 07:22N 33°44' W 118°16'0 0.0
2017-Sep-17 06:54N 33°44' W 118°16'0 0.0
2017-Sep-17 06:27N 33°44' W 118°16'0 0.0
2017-Sep-17 05:59N 33°44' W 118°16'0 0.0
2017-Sep-17 05:29N 33°44' W 118°16'0 0.0
2017-Sep-17 04:59N 33°44' W 118°16'0 0.0
2017-Sep-17 04:30N 33°44' W 118°16'0 0.0
2017-Sep-17 04:00N 33°44' W 118°16'0 0.0
2017-Sep-17 03:30N 33°44' W 118°16'0 0.0
2017-Sep-17 03:00N 33°44' W 118°16'0 0.4
2017-Sep-17 02:30N 33°44' W 118°16'2 3.5
2017-Sep-17 01:59N 33°45' W 118°17'1 1.0
2017-Sep-17 01:28N 33°46' W 118°17'0 0.0
2017-Sep-17 00:59N 33°46' W 118°17'3 5.7
2017-Sep-17 00:30N 33°43' W 118°16'3 5.3
2017-Sep-16 23:59N 33°45' W 118°13'1 1.3
2017-Sep-16 23:30N 33°44' W 118°13'2 4.5
2017-Sep-16 23:00N 33°44' W 118°16'0 0.0
2017-Sep-16 22:30N 33°44' W 118°16'0 0.0
2017-Sep-16 21:59N 33°44' W 118°16'0 0.0
2017-Sep-16 21:30N 33°44' W 118°16'0 0.0
2017-Sep-16 20:59N 33°44' W 118°16'0 0.0
2017-Sep-16 20:29N 33°44' W 118°16'0 0.0
2017-Sep-16 20:00N 33°44' W 118°16'0 0.0
2017-Sep-16 19:29N 33°44' W 118°16'0 0.0
2017-Sep-16 19:00N 33°44' W 118°16'0 0.0
2017-Sep-16 18:30N 33°44' W 118°16'0 0.0
2017-Sep-16 17:59N 33°44' W 118°16'0 0.0
2017-Sep-16 17:28N 33°44' W 118°16'0 0.0
2017-Sep-16 16:59N 33°44' W 118°16'0 0.0
2017-Sep-16 16:28N 33°44' W 118°16'2 3.1
2017-Sep-16 15:57N 33°43' W 118°14'3 4.6
2017-Sep-16 15:16N 33°45' W 118°11'0 1.4
2017-Sep-16 14:58N 33°45' W 118°11'1 2.2
2017-Sep-16 14:17N 33°44' W 118°12'2 3.5
2017-Sep-16 13:51N 33°43' W 118°14'2 4.9
2017-Sep-16 13:30N 33°44' W 118°16'0 0.1
2017-Sep-16 12:27N 33°44' W 118°16'0 0.0
2017-Sep-16 12:00N 33°44' W 118°16'0 0.0
2017-Sep-16 11:19N 33°44' W 118°16'0 0.0
2017-Sep-16 10:47N 33°44' W 118°16'0 0.0
2017-Sep-16 10:28N 33°44' W 118°16'0 0.0
2017-Sep-16 09:54N 33°44' W 118°16'0 0.0
2017-Sep-16 09:30N 33°44' W 118°16'0 0.0
2017-Sep-16 08:52N 33°44' W 118°16'0 0.0
2017-Sep-16 08:28N 33°44' W 118°16'0 0.0
2017-Sep-16 07:56N 33°44' W 118°16'0 0.0
2017-Sep-16 07:30N 33°44' W 118°16'0 0.0
2017-Sep-16 07:00N 33°44' W 118°16'0 0.0
2017-Sep-16 06:28N 33°44' W 118°16'0 0.0
2017-Sep-16 06:00N 33°44' W 118°16'0 0.0
2017-Sep-16 05:30N 33°44' W 118°16'0 0.0
2017-Sep-16 05:00N 33°44' W 118°16'0 0.0
2017-Sep-16 04:30N 33°44' W 118°16'0 0.0
2017-Sep-16 04:00N 33°44' W 118°16'0 0.0
2017-Sep-16 03:29N 33°44' W 118°16'0 0.0
2017-Sep-16 03:00N 33°44' W 118°16'0 0.0
2017-Sep-16 02:30N 33°44' W 118°16'0 0.6
2017-Sep-16 01:58N 33°44' W 118°16'1 2.5
2017-Sep-16 01:30N 33°45' W 118°16'0 0.1
2017-Sep-16 01:00N 33°45' W 118°17'1 1.8
2017-Sep-16 00:28N 33°44' W 118°16'2 4.3
2017-Sep-15 23:58N 33°43' W 118°13'3 6.0
2017-Sep-15 23:30N 33°44' W 118°10'0 0.0
2017-Sep-15 22:59N 33°44' W 118°10'2 3.5
2017-Sep-15 22:30N 33°44' W 118°08'2 4.0
2017-Sep-15 21:59N 33°44' W 118°06'1 1.6
2017-Sep-15 21:30N 33°44' W 118°06'4 8.2
2017-Sep-15 21:00N 33°44' W 118°11'4 7.7
2017-Sep-15 20:30N 33°44' W 118°16'0 0.0
2017-Sep-15 20:00N 33°44' W 118°16'0 0.0
2017-Sep-15 19:29N 33°44' W 118°16'2 3.8
2017-Sep-15 18:56N 33°43' W 118°13'3 5.6
2017-Sep-15 18:26N 33°44' W 118°10'2 4.7
2017-Sep-15 18:00N 33°44' W 118°12'1 2.6
2017-Sep-15 17:30N 33°45' W 118°14'1 1.0
2017-Sep-15 17:00N 33°45' W 118°13'1 2.6
2017-Sep-15 16:30N 33°46' W 118°13'1 1.1
2017-Sep-15 16:00N 33°46' W 118°13'0 0.2
2017-Sep-15 15:29N 33°47' W 118°13'0 0.7
2017-Sep-15 14:58N 33°46' W 118°13'0 0.0
2017-Sep-15 14:29N 33°46' W 118°13'3 5.3
2017-Sep-15 14:00N 33°44' W 118°13'2 3.4
2017-Sep-15 13:30N 33°44' W 118°15'0 0.1
2017-Sep-15 13:00N 33°44' W 118°15'1 2.7
2017-Sep-15 12:30N 33°45' W 118°16'2 3.0
2017-Sep-15 11:58N 33°44' W 118°16'1 1.2
2017-Sep-15 11:30N 33°44' W 118°16'0 0.0
2017-Sep-15 10:57N 33°44' W 118°16'0 0.0
2017-Sep-15 10:30N 33°44' W 118°16'0 0.0
2017-Sep-15 09:59N 33°44' W 118°16'0 0.0
2017-Sep-15 09:30N 33°44' W 118°16'0 0.0
2017-Sep-15 08:59N 33°44' W 118°16'0 0.0
2017-Sep-15 08:31N 33°44' W 118°16'0 0.0
2017-Sep-15 07:58N 33°44' W 118°16'0 0.0
2017-Sep-15 07:30N 33°44' W 118°16'0 0.0
2017-Sep-15 06:59N 33°44' W 118°16'0 0.0
2017-Sep-15 06:29N 33°44' W 118°16'0 0.0
2017-Sep-15 05:57N 33°44' W 118°16'0 0.0
2017-Sep-15 05:28N 33°44' W 118°16'0 0.0
2017-Sep-15 05:00N 33°44' W 118°16'0 0.0
2017-Sep-15 04:28N 33°44' W 118°16'0 0.0
2017-Sep-15 04:00N 33°44' W 118°16'0 0.0
2017-Sep-15 03:30N 33°44' W 118°16'0 0.0
2017-Sep-15 03:00N 33°44' W 118°16'0 0.0
2017-Sep-15 02:28N 33°44' W 118°16'0 0.0
2017-Sep-15 02:00N 33°44' W 118°16'0 0.0
2017-Sep-15 01:29N 33°44' W 118°16'0 0.0
2017-Sep-15 01:00N 33°44' W 118°16'0 0.0
2017-Sep-15 00:30N 33°44' W 118°16'0 0.0
2017-Sep-15 00:00N 33°44' W 118°16'0 0.0
2017-Sep-14 23:29N 33°44' W 118°16'0 0.0
2017-Sep-14 22:58N 33°44' W 118°16'0 0.0
2017-Sep-14 22:30N 33°44' W 118°16'0 0.0
2017-Sep-14 22:00N 33°44' W 118°16'0 0.0
2017-Sep-14 21:30N 33°44' W 118°16'0 0.0
2017-Sep-14 21:00N 33°44' W 118°16'0 0.0
2017-Sep-14 20:30N 33°44' W 118°16'0 0.0
2017-Sep-14 20:00N 33°44' W 118°16'0 0.1
2017-Sep-14 19:30N 33°44' W 118°16'0 0.2
2017-Sep-14 19:00N 33°44' W 118°16'0 0.0
2017-Sep-14 18:30N 33°44' W 118°16'0 0.0
2017-Sep-14 18:00N 33°44' W 118°16'0 0.0
2017-Sep-14 17:30N 33°44' W 118°16'1 1.8
2017-Sep-14 17:00N 33°43' W 118°16'3 7.0
2017-Sep-14 16:30N 33°44' W 118°12'1 2.2
2017-Sep-14 16:00N 33°45' W 118°13'1 1.1
2017-Sep-14 15:30N 33°46' W 118°13'0 0.2
2017-Sep-14 15:00N 33°45' W 118°13'1 2.8
2017-Sep-14 14:29N 33°44' W 118°13'  

Dump ship's entire track history